Noblesville, IN (46062)

2:41 PM EST on December 04, 2016 (GMT -0500)
F16arm | | Change Station

Elev 866 ft 40.05 °N, 86.09 °W | Updated 29 seconds ago

Light Rain
Light Rain
37.8 °F
Feels Like 38 °F
N
0.0
Wind Variable Wind from SE

Today
High -- | Low -- °F
--% Chance of Precip.
Yesterday
High -- | Low -- °F
Precip. -- in
Pressure 29.91 in
Visibility 3.0 miles
Clouds Mostly Cloudy 2200 ft
Mostly Cloudy 3500 ft
Overcast 4100 ft
Windchill 38 °F
Dew Point 34 °F
Humidity 86%
Rainfall 0.02 in
Snow Depth Not available.
7:50 AM 5:18 PM
Waxing Crescent, 25% visible
METAR KTYQ 041935Z AUTO 11007KT 3SM -RA BKN022 BKN035 OVC041 03/01 A2991 RMK AO2 P0001 T00270014
Pressure 29.91 in
Visibility 3.0 miles
Clouds Mostly Cloudy 2200 ft
Mostly Cloudy 3500 ft
Overcast 4100 ft
Windchill 38 °F
Dew Point 34 °F
Humidity 86%
Rainfall 0.02 in
Snow Depth Not available.
7:50 AM 5:18 PM
Waxing Crescent, 25% visible
METAR KTYQ 041935Z AUTO 11007KT 3SM -RA BKN022 BKN035 OVC041 03/01 A2991 RMK AO2 P0001 T00270014

10-Day Weather Forecast

Almanac

Astronomy

Dec. 04, 2016 Rise Set
Actual Time
Civil Twilight
Nautical Twilight
Astronomical Twilight
Moon
Length of Visible Light
Length of Day
Tomorrow will be .
, % of the Moon is Illuminated

Today's Extremes

State Highs State Lows

Community

WunderPhotos

Upload Photos

1,955,652 photos uploaded!

WunderBlog® & News

Nearby

Air Quality

  Air Quality AQ Index Pollutant
Not available.

Snow Depth

Station Depth Elevation

Earthquake Activity

City Distance Mag. Time & Date
Minimum magnitude displayed is 2.5.

Coastal Water Temperatures

Place Temperature

Stations

Nearby Weather Stations

Station Location Temp. Windchill Dew Point Humidity Wind Precip. Elev Updated Type
                   

Watches & Warnings

There are currently no watches in effect.